createdAt,value
2022-12-05T00:02:24.698Z,40.40
2022-12-05T00:04:51.767Z,41.40
2022-12-05T00:07:18.621Z,42.20
2022-12-05T00:09:46.662Z,35.60
2022-12-05T00:12:28.599Z,33.10
2022-12-05T00:17:27.897Z,36.90
2022-12-05T00:19:56.886Z,38.60
2022-12-05T00:22:26.327Z,32.70
2022-12-05T00:24:53.338Z,31.90
2022-12-05T00:27:26.201Z,35.20
2022-12-05T00:30:04.043Z,33.30
2022-12-05T00:32:34.224Z,36.00
2022-12-05T00:35:04.033Z,34.20
2022-12-05T00:37:32.539Z,32.00
2022-12-05T00:40:12.209Z,31.40
2022-12-05T00:42:39.327Z,33.50
2022-12-05T00:45:09.075Z,36.90
2022-12-05T00:47:40.156Z,33.30
2022-12-05T00:50:11.625Z,28.10
2022-12-05T00:53:10.111Z,28.20
2022-12-05T00:55:39.220Z,29.90
2022-12-05T00:58:11.319Z,28.90
2022-12-05T01:00:39.474Z,28.10
2022-12-05T01:03:08.942Z,28.10
2022-12-05T01:08:14.270Z,26.40
2022-12-05T01:10:41.217Z,29.70
2022-12-05T01:13:22.982Z,27.30
2022-12-05T01:15:55.417Z,34.30
2022-12-05T01:18:27.452Z,29.30
2022-12-05T01:20:56.835Z,29.30
2022-12-05T01:23:24.268Z,30.90
2022-12-05T01:26:14.202Z,28.80
2022-12-05T01:28:41.591Z,31.30
2022-12-05T01:31:34.382Z,33.30
2022-12-05T01:34:08.614Z,35.20
2022-12-05T01:36:38.852Z,33.20
2022-12-05T01:39:07.488Z,29.20
2022-12-05T01:41:41.963Z,36.40
2022-12-05T01:44:14.865Z,34.00
2022-12-05T01:46:48.683Z,24.80
2022-12-05T01:49:23.577Z,28.20
2022-12-05T01:51:57.134Z,27.00
2022-12-05T01:54:25.660Z,30.70
2022-12-05T01:57:00.503Z,26.70
2022-12-05T01:59:33.808Z,26.30
2022-12-05T02:02:01.170Z,22.70
2022-12-05T02:04:28.396Z,28.70
2022-12-05T02:06:55.832Z,25.80
2022-12-05T02:09:26.191Z,24.50
2022-12-05T02:12:01.777Z,30.30
2022-12-05T02:14:46.678Z,23.00
2022-12-05T02:17:22.336Z,22.80
2022-12-05T02:20:16.996Z,24.30
2022-12-05T02:23:14.661Z,25.50
2022-12-05T02:25:50.651Z,24.50
2022-12-05T02:28:42.054Z,25.00
2022-12-05T02:31:37.166Z,23.20
2022-12-05T02:34:38.521Z,23.20
2022-12-05T02:37:38.689Z,26.30
2022-12-05T02:40:38.736Z,28.60
2022-12-05T02:43:31.756Z,28.80
2022-12-05T02:46:03.773Z,26.90
2022-12-05T02:48:33.806Z,27.40
2022-12-05T02:51:03.251Z,27.50
2022-12-05T02:53:32.573Z,29.10
2022-12-05T02:56:00.739Z,30.20
2022-12-05T02:58:33.669Z,34.00
2022-12-05T03:01:00.987Z,30.80
2022-12-05T03:03:31.588Z,29.10
2022-12-05T03:06:13.024Z,33.50
2022-12-05T03:08:49.185Z,30.30
2022-12-05T03:11:16.196Z,29.80
2022-12-05T03:13:50.908Z,27.70
2022-12-05T03:16:23.724Z,30.10
2022-12-05T03:18:56.378Z,27.70
2022-12-05T03:21:26.186Z,27.50
2022-12-05T03:23:57.656Z,25.80
2022-12-05T03:26:31.440Z,25.70
2022-12-05T03:29:29.828Z,26.20
2022-12-05T03:32:20.995Z,42.40
2022-12-05T03:35:11.882Z,50.10
2022-12-05T03:37:50.008Z,69.50
2022-12-05T03:40:29.233Z,75.00
2022-12-05T03:43:12.707Z,83.30
2022-12-05T03:45:58.434Z,93.20
2022-12-05T03:48:52.882Z,106.00
2022-12-05T03:51:22.999Z,106.30
2022-12-05T03:54:00.035Z,98.20
2022-12-05T03:56:37.493Z,99.60
2022-12-05T03:59:34.019Z,99.40
2022-12-05T04:02:07.947Z,97.70
2022-12-05T04:04:39.995Z,65.80
2022-12-05T04:07:09.115Z,49.00
2022-12-05T04:09:48.465Z,37.70
2022-12-05T04:12:21.972Z,35.00
2022-12-05T04:15:03.430Z,30.40
2022-12-05T04:17:38.617Z,28.10
2022-12-05T04:20:36.419Z,31.80
2022-12-05T04:23:04.062Z,27.20
2022-12-05T04:26:09.138Z,28.50
2022-12-05T04:28:39.011Z,27.20
2022-12-05T04:31:25.065Z,31.00
2022-12-05T04:33:56.629Z,29.80
2022-12-05T04:36:34.644Z,32.40
2022-12-05T04:39:20.965Z,30.30
2022-12-05T04:42:05.329Z,32.80
2022-12-05T04:44:47.069Z,38.50
2022-12-05T04:47:17.012Z,35.10
2022-12-05T04:49:54.347Z,34.40
2022-12-05T04:52:22.640Z,32.90
2022-12-05T04:54:54.985Z,36.40
2022-12-05T04:57:27.438Z,35.90
2022-12-05T04:59:55.053Z,39.20
2022-12-05T05:02:37.516Z,42.60
2022-12-05T05:05:13.723Z,56.40
2022-12-05T05:07:48.980Z,77.70
2022-12-05T05:10:20.869Z,64.10
2022-12-05T05:12:47.939Z,79.00
2022-12-05T05:15:15.156Z,85.30
2022-12-05T05:17:42.275Z,123.60
2022-12-05T05:20:26.447Z,78.80
2022-12-05T05:22:56.066Z,54.50
2022-12-05T05:25:24.636Z,67.00
2022-12-05T05:27:53.733Z,66.30
2022-12-05T05:30:23.220Z,57.00
2022-12-05T05:32:50.714Z,59.40
2022-12-05T05:35:17.832Z,65.90
2022-12-05T05:37:45.682Z,59.20
2022-12-05T05:40:15.116Z,62.90
2022-12-05T05:42:54.084Z,60.00
2022-12-05T05:45:21.629Z,68.20
2022-12-05T05:47:49.513Z,61.40
2022-12-05T05:50:28.479Z,58.40
2022-12-05T05:53:05.596Z,61.30
2022-12-05T05:55:41.238Z,55.10
2022-12-05T05:58:12.370Z,56.90
2022-12-05T06:00:40.576Z,52.50
2022-12-05T06:03:10.509Z,55.00
2022-12-05T06:05:56.628Z,56.60
2022-12-05T06:08:29.862Z,47.80
2022-12-05T06:11:09.530Z,46.70
2022-12-05T06:13:39.342Z,48.80
2022-12-05T06:16:09.425Z,45.80
2022-12-05T06:18:37.025Z,54.20
2022-12-05T06:21:11.798Z,56.60
2022-12-05T06:23:43.157Z,50.70
2022-12-05T06:26:25.029Z,48.00
2022-12-05T06:28:59.670Z,53.30
2022-12-05T06:31:30.959Z,45.00
2022-12-05T06:34:03.314Z,45.00
2022-12-05T06:36:33.029Z,45.40
2022-12-05T06:38:59.961Z,41.30
2022-12-05T06:41:28.123Z,41.80
2022-12-05T06:44:01.639Z,45.60
2022-12-05T06:46:29.542Z,48.10
2022-12-05T06:49:00.325Z,50.10
2022-12-05T06:51:27.474Z,50.60
2022-12-05T06:54:13.261Z,51.00
2022-12-05T06:56:44.927Z,54.80
2022-12-05T06:59:24.534Z,51.20
2022-12-05T07:01:51.899Z,60.20
2022-12-05T07:04:23.889Z,50.20
2022-12-05T07:06:54.111Z,51.80
2022-12-05T07:09:44.953Z,57.80
2022-12-05T07:12:38.978Z,56.00
2022-12-05T07:15:19.241Z,55.60
2022-12-05T07:17:52.544Z,50.70
2022-12-05T07:20:43.120Z,51.80
2022-12-05T07:23:42.350Z,51.60
2022-12-05T07:26:30.806Z,52.80
2022-12-05T07:29:36.384Z,45.50
2022-12-05T07:32:17.214Z,47.60
2022-12-05T07:35:07.885Z,44.90
2022-12-05T07:38:25.983Z,40.60
2022-12-05T07:40:55.995Z,41.20
2022-12-05T07:43:33.908Z,43.00
2022-12-05T07:46:06.526Z,36.70
2022-12-05T07:49:05.045Z,37.80
2022-12-05T07:58:01.797Z,42.20
2022-12-05T08:00:43.584Z,43.20
2022-12-05T08:03:12.229Z,40.20
2022-12-05T08:06:05.763Z,38.70
2022-12-05T08:08:33.245Z,41.30
2022-12-05T08:11:05.844Z,39.30
2022-12-05T08:13:37.098Z,36.80
2022-12-05T08:16:10.391Z,34.70
2022-12-05T08:18:49.767Z,38.60
2022-12-05T08:21:24.842Z,37.70
2022-12-05T08:23:53.076Z,35.30
2022-12-05T08:26:24.137Z,35.20
2022-12-05T08:28:59.235Z,39.30
2022-12-05T08:31:32.149Z,34.60
2022-12-05T08:34:00.052Z,36.30
2022-12-05T08:36:29.553Z,33.90
2022-12-05T08:39:09.153Z,32.80
2022-12-05T08:41:38.356Z,33.30
2022-12-05T08:44:08.976Z,31.90
2022-12-05T08:46:46.495Z,36.90
2022-12-05T08:50:13.174Z,33.40
2022-12-05T08:52:39.914Z,32.30
2022-12-05T08:55:22.067Z,35.00
2022-12-05T08:58:19.566Z,33.70
2022-12-05T09:00:59.846Z,37.00
2022-12-05T09:06:27.948Z,33.30
2022-12-05T09:09:12.433Z,34.30
2022-12-05T09:12:15.784Z,34.60
2022-12-05T09:14:47.462Z,37.00
2022-12-05T09:17:16.362Z,32.70
2022-12-05T09:20:20.515Z,32.60
2022-12-05T09:22:49.051Z,36.00
2022-12-05T09:25:21.964Z,34.00
2022-12-05T09:27:59.850Z,39.00
2022-12-05T09:30:28.978Z,38.80
2022-12-05T09:35:56.041Z,41.20
2022-12-05T09:38:35.393Z,43.70
2022-12-05T09:41:30.184Z,57.00
2022-12-05T09:44:36.628Z,45.60
2022-12-05T09:47:42.617Z,51.10
2022-12-05T09:50:43.840Z,53.50
2022-12-05T09:53:10.844Z,52.00
2022-12-05T09:56:00.519Z,55.50
2022-12-05T10:03:31.470Z,58.80
2022-12-05T10:05:08.275Z,55.50
2022-12-05T10:07:48.980Z,57.50
2022-12-05T10:10:29.708Z,59.30
2022-12-05T10:13:25.669Z,61.40
2022-12-05T10:15:57.543Z,60.20
2022-12-05T10:18:53.936Z,68.10
2022-12-05T10:21:31.183Z,66.70
2022-12-05T10:24:16.388Z,71.90
2022-12-05T10:26:55.197Z,74.60
2022-12-05T10:29:44.815Z,71.10
2022-12-05T10:32:28.159Z,72.00
2022-12-05T10:35:21.875Z,65.80
2022-12-05T10:38:31.046Z,66.70
2022-12-05T10:41:18.295Z,68.30
2022-12-05T10:43:48.697Z,67.60
2022-12-05T10:46:17.452Z,60.20
2022-12-05T10:48:46.896Z,67.10
2022-12-05T10:51:17.542Z,61.20
2022-12-05T10:53:50.584Z,51.50
2022-12-05T10:56:43.785Z,52.10
2022-12-05T10:59:15.712Z,44.30
2022-12-05T11:01:58.002Z,42.10
2022-12-05T11:04:47.124Z,42.00
2022-12-05T11:07:30.216Z,44.00
2022-12-05T11:10:03.652Z,43.20
2022-12-05T11:12:35.947Z,43.20
2022-12-05T11:15:04.905Z,42.50
2022-12-05T11:20:45.338Z,41.10
2022-12-05T11:23:58.453Z,43.70
2022-12-05T11:26:45.757Z,37.70
2022-12-05T11:30:14.925Z,39.70
2022-12-05T11:32:51.439Z,40.10
2022-12-05T11:35:25.951Z,36.30
2022-12-05T11:37:59.850Z,31.80
2022-12-05T11:40:38.592Z,31.90
2022-12-05T11:43:28.492Z,28.20
2022-12-05T11:46:28.882Z,27.20
2022-12-05T11:49:26.841Z,28.80
2022-12-05T11:52:30.527Z,28.40
2022-12-05T11:55:16.168Z,30.00
2022-12-05T11:58:02.538Z,30.90
2022-12-05T12:00:51.683Z,29.10
2022-12-05T12:03:43.100Z,44.80
2022-12-05T12:06:32.161Z,39.20
2022-12-05T12:09:25.908Z,44.50
2022-12-05T12:12:22.153Z,36.50
2022-12-05T12:15:42.300Z,35.30
2022-12-05T12:18:30.932Z,35.10
2022-12-05T12:21:15.970Z,32.60
2022-12-05T12:24:04.509Z,31.70
2022-12-05T12:27:35.142Z,32.70
2022-12-05T12:30:24.209Z,32.40
2022-12-05T12:33:36.398Z,32.70
2022-12-05T12:36:37.754Z,32.50
2022-12-05T12:39:28.459Z,34.00
2022-12-05T12:42:15.688Z,27.80
2022-12-05T12:44:55.297Z,29.50
2022-12-05T12:47:28.334Z,26.70
2022-12-05T12:50:17.803Z,31.10
2022-12-05T12:52:56.406Z,31.80
2022-12-05T12:55:26.525Z,31.50
2022-12-05T12:58:27.967Z,31.10
2022-12-05T13:02:16.913Z,34.90
2022-12-05T13:04:49.455Z,35.50
2022-12-05T13:07:26.647Z,36.40
2022-12-05T13:10:35.310Z,37.40
2022-12-05T13:13:52.024Z,32.20
2022-12-05T13:16:45.743Z,31.90
2022-12-05T13:19:30.031Z,34.30
2022-12-05T13:22:06.485Z,32.40
2022-12-05T13:24:49.502Z,39.60
2022-12-05T13:27:32.440Z,38.10
2022-12-05T13:30:05.258Z,37.20
2022-12-05T13:33:20.961Z,38.70
2022-12-05T13:37:00.659Z,44.70
2022-12-05T13:40:11.042Z,47.00
2022-12-05T13:42:38.565Z,49.50
2022-12-05T13:45:18.730Z,48.70
2022-12-05T13:47:55.603Z,43.50
2022-12-05T13:50:51.148Z,38.50
2022-12-05T13:53:39.300Z,36.40
2022-12-05T13:56:29.951Z,38.00
2022-12-05T14:00:07.385Z,36.70
2022-12-05T14:03:08.126Z,35.70
2022-12-05T14:06:01.872Z,30.40
2022-12-05T14:08:31.906Z,34.20
2022-12-05T14:11:13.941Z,30.50
2022-12-05T14:13:50.980Z,32.90
2022-12-05T14:16:26.690Z,33.50
2022-12-05T14:19:15.059Z,31.00
2022-12-05T14:22:08.494Z,36.00
2022-12-05T14:25:09.082Z,29.00
2022-12-05T14:28:17.110Z,36.30
2022-12-05T14:32:11.221Z,32.40
2022-12-05T14:34:47.153Z,30.00
2022-12-05T14:37:37.434Z,34.20
2022-12-05T14:40:54.238Z,34.20
2022-12-05T14:47:40.749Z,31.70
2022-12-05T14:47:47.355Z,31.60
2022-12-05T14:50:02.946Z,34.90
2022-12-05T14:53:23.009Z,29.00
2022-12-05T14:56:00.120Z,31.10
2022-12-05T14:58:39.305Z,31.30
2022-12-05T15:01:14.395Z,27.10
2022-12-05T15:04:00.646Z,29.70
2022-12-05T15:06:28.343Z,29.60
2022-12-05T15:09:35.089Z,28.60
2022-12-05T15:12:09.782Z,28.30
2022-12-05T15:15:08.922Z,27.00
2022-12-05T15:17:44.106Z,27.40
2022-12-05T15:20:29.481Z,29.90
2022-12-05T15:22:59.634Z,26.80
2022-12-05T15:25:33.359Z,28.50
2022-12-05T15:28:17.285Z,28.40
2022-12-05T15:30:55.309Z,27.20
2022-12-05T15:33:25.935Z,28.00
2022-12-05T15:35:55.258Z,35.90
2022-12-05T15:38:32.156Z,35.00
2022-12-05T15:41:01.471Z,30.80
2022-12-05T15:43:33.925Z,25.80
2022-12-05T15:46:28.280Z,27.30
2022-12-05T15:48:57.580Z,25.30
2022-12-05T15:51:36.433Z,28.30
2022-12-05T15:54:17.713Z,27.80
2022-12-05T15:56:59.687Z,27.50
2022-12-05T15:59:42.761Z,26.50
2022-12-05T16:02:22.524Z,28.80
2022-12-05T16:04:56.209Z,26.80
2022-12-05T16:07:26.717Z,31.60
2022-12-05T16:09:59.204Z,33.50
2022-12-05T16:12:38.894Z,30.10
2022-12-05T16:15:14.555Z,27.80
2022-12-05T16:17:55.939Z,30.00
2022-12-05T16:20:36.543Z,33.90
2022-12-05T16:23:27.097Z,39.40
2022-12-05T16:26:10.406Z,37.30
2022-12-05T16:28:39.642Z,38.10
2022-12-05T16:31:07.094Z,51.70
2022-12-05T16:33:40.177Z,54.90
2022-12-05T16:36:12.397Z,60.90
2022-12-05T16:38:44.476Z,55.10
2022-12-05T16:41:23.258Z,45.70
2022-12-05T16:44:26.962Z,41.20
2022-12-05T16:47:11.937Z,41.80
2022-12-05T16:49:57.326Z,37.80
2022-12-05T16:52:32.778Z,37.30
2022-12-05T16:55:06.378Z,39.80
2022-12-05T16:57:42.516Z,39.40
2022-12-05T17:00:20.533Z,37.80
2022-12-05T17:02:52.869Z,38.50
2022-12-05T17:05:22.302Z,37.90
2022-12-05T17:07:49.719Z,39.40
2022-12-05T17:10:17.438Z,39.90
2022-12-05T17:12:47.842Z,36.80
2022-12-05T17:15:19.518Z,36.10
2022-12-05T17:17:46.676Z,39.00
2022-12-05T17:20:16.095Z,37.10
2022-12-05T17:22:49.728Z,45.90
2022-12-05T17:25:36.608Z,46.90
2022-12-05T17:28:03.861Z,44.90
2022-12-05T17:30:33.730Z,42.80
2022-12-05T17:33:01.327Z,44.50
2022-12-05T17:35:31.799Z,42.60
2022-12-05T17:38:03.850Z,44.80
2022-12-05T17:40:34.659Z,41.90
2022-12-05T17:43:12.731Z,49.10
2022-12-05T17:45:46.907Z,48.80
2022-12-05T17:48:20.610Z,45.60
2022-12-05T17:50:49.504Z,45.30
2022-12-05T17:53:20.023Z,54.60
2022-12-05T17:55:52.820Z,55.20
2022-12-05T18:01:25.569Z,49.00
2022-12-05T18:03:55.997Z,46.60
2022-12-05T18:04:53.546Z,63.30
2022-12-05T18:06:23.040Z,46.40
2022-12-05T18:09:03.862Z,48.50
2022-12-05T18:11:37.577Z,47.90
2022-12-05T18:14:12.454Z,50.10
2022-12-05T18:16:55.096Z,54.40
2022-12-05T18:19:26.188Z,52.40
2022-12-05T18:21:57.009Z,53.00
2022-12-05T18:24:31.768Z,54.00
2022-12-05T18:27:11.475Z,54.80
2022-12-05T18:29:40.166Z,49.50
2022-12-05T18:32:15.698Z,48.70
2022-12-05T18:35:43.407Z,49.30
2022-12-05T18:38:15.496Z,49.70
2022-12-05T18:40:51.959Z,57.80
2022-12-05T18:43:20.134Z,53.30
2022-12-05T18:46:12.945Z,54.60
2022-12-05T18:49:01.714Z,61.30
2022-12-05T18:51:30.921Z,55.40
2022-12-05T18:54:02.404Z,63.10
2022-12-05T18:59:52.207Z,57.00
2022-12-05T19:02:27.252Z,57.80
2022-12-05T19:05:01.846Z,53.50
2022-12-05T19:07:31.170Z,61.30
2022-12-05T19:10:11.119Z,54.60
2022-12-05T19:12:49.491Z,59.10
2022-12-05T19:15:20.649Z,51.80
2022-12-05T19:17:52.649Z,50.80
2022-12-05T19:20:29.926Z,51.90
2022-12-05T19:23:00.836Z,51.30
2022-12-05T19:25:30.606Z,53.20
2022-12-05T19:28:08.686Z,52.00
2022-12-05T19:31:21.476Z,49.30
2022-12-05T19:33:53.805Z,53.90
2022-12-05T19:36:51.252Z,45.40
2022-12-05T19:39:23.565Z,46.70
2022-12-05T19:42:22.651Z,45.30
2022-12-05T19:44:54.456Z,40.90
2022-12-05T19:47:37.597Z,42.30
2022-12-05T19:50:15.095Z,42.70
2022-12-05T19:53:16.043Z,44.00
2022-12-05T19:58:27.688Z,43.00
2022-12-05T20:00:57.529Z,38.90
2022-12-05T20:03:27.010Z,50.60
2022-12-05T20:05:59.737Z,47.60
2022-12-05T20:08:26.921Z,49.20
2022-12-05T20:10:54.067Z,46.70
2022-12-05T20:13:46.541Z,45.90
2022-12-05T20:16:33.485Z,47.60
2022-12-05T20:19:30.535Z,52.50
2022-12-05T20:22:30.512Z,51.00
2022-12-05T20:24:57.868Z,51.10
2022-12-05T20:27:24.914Z,48.00
2022-12-05T20:29:52.217Z,49.70
2022-12-05T20:32:53.890Z,49.90
2022-12-05T20:35:24.335Z,48.80
2022-12-05T20:38:25.309Z,41.90
2022-12-05T20:41:15.013Z,46.60
2022-12-05T20:44:36.831Z,52.10
2022-12-05T20:47:22.871Z,47.40
2022-12-05T20:54:06.746Z,51.10
2022-12-05T20:56:35.249Z,49.80
2022-12-05T20:59:05.532Z,46.00
2022-12-05T21:01:35.125Z,53.40
2022-12-05T21:04:05.311Z,47.60
2022-12-05T21:06:35.830Z,47.00
2022-12-05T21:11:34.808Z,43.70
2022-12-05T21:14:09.396Z,50.80
2022-12-05T21:16:47.207Z,46.60
2022-12-05T21:19:14.835Z,51.90
2022-12-05T21:21:41.928Z,48.60
2022-12-05T21:24:14.735Z,49.90
2022-12-05T21:26:54.145Z,50.60
2022-12-05T21:29:24.684Z,47.20
2022-12-05T21:32:13.375Z,46.10
2022-12-05T21:34:55.058Z,43.40
2022-12-05T21:37:27.629Z,40.90
2022-12-05T21:39:54.884Z,44.20
2022-12-05T21:42:21.916Z,42.00
2022-12-05T21:44:54.951Z,60.30
2022-12-05T21:47:48.025Z,46.40
2022-12-05T21:50:34.581Z,39.80
2022-12-05T21:53:09.163Z,42.00
2022-12-05T21:56:33.446Z,39.90
2022-12-05T21:59:33.621Z,40.80
2022-12-05T22:02:14.786Z,42.90
2022-12-05T22:04:43.803Z,38.70
2022-12-05T22:07:10.818Z,39.70
2022-12-05T22:09:37.744Z,38.90
2022-12-05T22:12:05.076Z,39.40
2022-12-05T22:14:32.135Z,44.50
2022-12-05T22:17:19.356Z,40.60
2022-12-05T22:20:12.881Z,40.80
2022-12-05T22:22:43.056Z,42.20
2022-12-05T22:25:10.111Z,38.30
2022-12-05T22:27:37.670Z,41.70
2022-12-05T22:30:05.362Z,45.00
2022-12-05T22:32:33.055Z,41.80
2022-12-05T22:35:03.715Z,41.80
2022-12-05T22:37:31.445Z,42.20
2022-12-05T22:40:01.224Z,44.50
2022-12-05T22:42:31.290Z,45.20
2022-12-05T22:44:58.063Z,41.90
2022-12-05T22:47:24.883Z,40.50
2022-12-05T22:49:51.644Z,44.10
2022-12-05T22:52:22.190Z,44.70
2022-12-05T22:54:51.492Z,43.00
2022-12-05T22:57:18.906Z,44.80
2022-12-05T22:59:51.337Z,45.60
2022-12-05T23:02:21.228Z,41.90
2022-12-05T23:04:50.427Z,44.90
2022-12-05T23:08:09.979Z,47.00
2022-12-05T23:10:20.829Z,45.60
2022-12-05T23:12:47.772Z,42.40
2022-12-05T23:15:14.725Z,39.00
2022-12-05T23:17:49.643Z,44.50
2022-12-05T23:20:16.763Z,43.20
2022-12-05T23:22:43.546Z,41.20
2022-12-05T23:25:10.302Z,44.10
2022-12-05T23:27:40.437Z,41.60
2022-12-05T23:30:12.274Z,41.90
2022-12-05T23:32:39.048Z,42.10
2022-12-05T23:35:16.626Z,40.40
2022-12-05T23:37:48.144Z,41.60
2022-12-05T23:40:16.158Z,37.20
2022-12-05T23:42:43.164Z,40.40
2022-12-05T23:45:10.684Z,36.30
2022-12-05T23:47:47.340Z,36.00
2022-12-05T23:50:35.532Z,35.90
2022-12-05T23:53:02.358Z,32.40
2022-12-05T23:55:55.153Z,34.50
2022-12-05T23:58:22.136Z,32.70
